createdAt,value
2023-04-16T00:00:57.114Z,8.80
2023-04-16T00:02:58.830Z,9.33
2023-04-16T00:05:00.786Z,9.07
2023-04-16T00:07:02.393Z,9.93
2023-04-16T00:09:03.969Z,9.90
2023-04-16T00:11:05.975Z,9.37
2023-04-16T00:13:07.596Z,8.98
2023-04-16T00:15:09.868Z,9.52
2023-04-16T00:17:13.020Z,9.10
2023-04-16T00:19:14.578Z,11.10
2023-04-16T00:21:16.156Z,9.50
2023-04-16T00:23:17.720Z,9.32
2023-04-16T00:25:19.262Z,9.63
2023-04-16T00:27:20.836Z,10.13
2023-04-16T00:29:23.009Z,9.77
2023-04-16T00:31:28.470Z,9.43
2023-04-16T00:33:31.561Z,10.32
2023-04-16T00:35:33.157Z,11.00
2023-04-16T00:37:34.729Z,10.68
2023-04-16T00:39:36.342Z,10.35
2023-04-16T00:41:38.424Z,11.02
2023-04-16T00:43:39.992Z,10.45
2023-04-16T00:45:41.658Z,11.00
2023-04-16T00:47:43.654Z,11.47
2023-04-16T00:49:46.727Z,10.68
2023-04-16T00:51:48.922Z,10.73
2023-04-16T00:53:50.700Z,10.20
2023-04-16T00:55:52.386Z,11.60
2023-04-16T00:57:53.940Z,11.07
2023-04-16T00:59:56.357Z,11.35
2023-04-16T01:01:58.067Z,10.95
2023-04-16T01:04:00.084Z,11.13
2023-04-16T01:06:03.369Z,11.15
2023-04-16T01:08:05.718Z,11.13
2023-04-16T01:10:08.148Z,11.88
2023-04-16T01:12:10.044Z,11.93
2023-04-16T01:14:11.671Z,12.82
2023-04-16T01:16:13.284Z,11.40
2023-04-16T01:18:15.765Z,12.53
2023-04-16T01:20:17.431Z,12.85
2023-04-16T01:22:20.366Z,14.35
2023-04-16T01:24:22.038Z,13.07
2023-04-16T01:26:23.674Z,11.65
2023-04-16T01:28:25.413Z,12.65
2023-04-16T01:30:26.982Z,12.40
2023-04-16T01:32:31.794Z,12.00
2023-04-16T01:34:33.362Z,12.40
2023-04-16T01:36:34.996Z,12.93
2023-04-16T01:38:37.925Z,12.70
2023-04-16T01:40:39.476Z,11.95
2023-04-16T01:42:41.104Z,12.57
2023-04-16T01:44:42.688Z,15.57
2023-04-16T01:46:44.605Z,12.50
2023-04-16T01:48:46.666Z,12.77
2023-04-16T01:50:48.229Z,14.37
2023-04-16T01:52:49.818Z,12.63
2023-04-16T01:54:52.924Z,16.02
2023-04-16T01:56:57.331Z,13.23
2023-04-16T01:58:59.033Z,16.75
2023-04-16T02:01:00.937Z,13.80
2023-04-16T02:03:02.973Z,13.57
2023-04-16T02:05:05.383Z,14.88
2023-04-16T02:07:07.786Z,15.03
2023-04-16T02:09:09.672Z,15.48
2023-04-16T02:11:12.842Z,15.00
2023-04-16T02:13:15.253Z,15.13
2023-04-16T02:15:17.133Z,15.23
2023-04-16T02:17:18.738Z,15.37
2023-04-16T02:19:20.557Z,15.95
2023-04-16T02:21:22.136Z,14.27
2023-04-16T02:23:23.641Z,14.40
2023-04-16T02:25:25.259Z,15.35
2023-04-16T02:27:28.157Z,17.92
2023-04-16T02:29:29.722Z,15.75
2023-04-16T02:31:31.402Z,15.20
2023-04-16T02:33:33.023Z,15.88
2023-04-16T02:35:35.613Z,16.00
2023-04-16T02:37:37.189Z,15.35
2023-04-16T02:39:38.736Z,17.15
2023-04-16T02:41:40.294Z,16.77
2023-04-16T02:43:43.269Z,15.77
2023-04-16T02:45:44.949Z,18.35
2023-04-16T02:47:46.691Z,16.23
2023-04-16T02:49:48.332Z,15.65
2023-04-16T02:51:49.927Z,16.38
2023-04-16T02:53:51.476Z,16.17
2023-04-16T02:55:53.799Z,17.60
2023-04-16T02:57:55.359Z,14.82
2023-04-16T02:59:58.312Z,16.17
2023-04-16T03:02:00.232Z,17.13
2023-04-16T03:04:01.926Z,15.93
2023-04-16T03:06:04.048Z,17.83
2023-04-16T03:08:06.246Z,17.65
2023-04-16T03:10:08.430Z,17.60
2023-04-16T03:12:10.050Z,16.92
2023-04-16T03:14:11.617Z,18.27
2023-04-16T03:16:14.736Z,16.05
2023-04-16T03:18:16.588Z,16.20
2023-04-16T03:20:18.229Z,18.67
2023-04-16T03:22:19.769Z,15.50
2023-04-16T03:24:21.341Z,15.70
2023-04-16T03:26:22.939Z,16.30
2023-04-16T03:28:24.509Z,16.90
2023-04-16T03:30:26.484Z,16.40
2023-04-16T03:32:29.755Z,16.40
2023-04-16T03:34:31.348Z,16.70
2023-04-16T03:36:32.912Z,15.73
2023-04-16T03:38:34.554Z,17.27
2023-04-16T03:40:36.152Z,16.55
2023-04-16T03:42:37.778Z,17.35
2023-04-16T03:44:39.353Z,16.60
2023-04-16T03:46:40.926Z,17.65
2023-04-16T03:48:43.836Z,17.40
2023-04-16T03:50:45.868Z,17.88
2023-04-16T03:52:47.437Z,17.47
2023-04-16T03:54:49.004Z,17.60
2023-04-16T03:56:50.566Z,17.42
2023-04-16T03:58:52.204Z,16.60
2023-04-16T04:00:54.007Z,20.63
2023-04-16T04:02:55.813Z,17.52
2023-04-16T04:04:58.904Z,20.02
2023-04-16T04:07:00.520Z,17.47
2023-04-16T04:09:02.261Z,17.50
2023-04-16T04:11:04.076Z,18.30
2023-04-16T04:13:07.199Z,19.92
2023-04-16T04:15:09.861Z,18.80
2023-04-16T04:17:11.401Z,19.00
2023-04-16T04:19:12.922Z,19.07
2023-04-16T04:21:16.007Z,18.25
2023-04-16T04:23:17.683Z,19.20
2023-04-16T04:25:19.227Z,18.37
2023-04-16T04:27:20.863Z,18.00
2023-04-16T04:29:22.432Z,17.50
2023-04-16T04:31:24.102Z,17.85
2023-04-16T04:33:25.875Z,17.80
2023-04-16T04:35:27.452Z,16.67
2023-04-16T04:37:30.426Z,16.80
2023-04-16T04:39:32.061Z,19.17
2023-04-16T04:41:33.720Z,19.67
2023-04-16T04:43:35.326Z,17.80
2023-04-16T04:45:36.971Z,18.20
2023-04-16T04:47:38.661Z,16.30
2023-04-16T04:49:40.565Z,17.55
2023-04-16T04:51:42.266Z,19.45
2023-04-16T04:53:45.233Z,17.88
2023-04-16T04:55:47.248Z,17.00
2023-04-16T04:57:50.210Z,17.25
2023-04-16T04:59:51.820Z,20.25
2023-04-16T05:01:53.671Z,18.40
2023-04-16T05:03:55.374Z,18.98
2023-04-16T05:05:57.005Z,18.73
2023-04-16T05:07:58.541Z,21.65
2023-04-16T05:10:01.937Z,17.27
2023-04-16T05:12:04.113Z,17.50
2023-04-16T05:14:05.679Z,17.88
2023-04-16T05:16:07.972Z,17.77
2023-04-16T05:18:09.480Z,20.17
2023-04-16T05:20:11.237Z,17.88
2023-04-16T05:22:12.875Z,15.98
2023-04-16T05:24:15.052Z,19.98
2023-04-16T05:26:18.073Z,17.40
2023-04-16T05:28:19.717Z,18.35
2023-04-16T05:30:21.297Z,18.20
2023-04-16T05:32:24.867Z,17.45
2023-04-16T05:34:26.505Z,16.67
2023-04-16T05:36:28.093Z,16.40
2023-04-16T05:38:29.643Z,19.95
2023-04-16T05:40:31.470Z,14.50
2023-04-16T05:42:34.435Z,16.75
2023-04-16T05:44:35.960Z,16.70
2023-04-16T05:46:37.562Z,15.97
2023-04-16T05:48:39.273Z,15.27
2023-04-16T05:50:40.891Z,15.40
2023-04-16T05:52:42.662Z,15.25
2023-04-16T05:54:44.339Z,15.82
2023-04-16T05:56:46.076Z,17.05
2023-04-16T05:58:49.064Z,15.32
2023-04-16T06:00:50.922Z,14.38
2023-04-16T06:02:52.720Z,17.20
2023-04-16T06:04:54.354Z,14.45
2023-04-16T06:06:55.873Z,14.55
2023-04-16T06:08:57.408Z,18.13
2023-04-16T06:10:59.314Z,15.73
2023-04-16T06:13:00.900Z,15.30
2023-04-16T06:15:04.770Z,13.10
2023-04-16T06:17:06.389Z,13.10
2023-04-16T06:19:08.100Z,13.00
2023-04-16T06:21:10.069Z,13.05
2023-04-16T06:23:11.620Z,12.48
2023-04-16T06:25:13.203Z,12.15
2023-04-16T06:27:14.758Z,14.27
2023-04-16T06:29:16.323Z,14.07
2023-04-16T06:31:19.320Z,14.02
2023-04-16T06:33:20.968Z,13.43
2023-04-16T06:35:22.655Z,14.93
2023-04-16T06:37:24.285Z,13.88
2023-04-16T06:39:25.796Z,13.63
2023-04-16T06:41:27.379Z,13.20
2023-04-16T06:43:28.992Z,13.18
2023-04-16T06:45:30.552Z,13.85
2023-04-16T06:47:33.482Z,12.25
2023-04-16T06:49:35.116Z,14.88
2023-04-16T06:51:36.677Z,17.05
2023-04-16T06:53:38.542Z,14.63
2023-04-16T06:55:40.047Z,14.63
2023-04-16T06:57:41.886Z,15.18
2023-04-16T06:59:43.498Z,15.23
2023-04-16T07:01:45.134Z,14.93
2023-04-16T07:03:48.448Z,15.77
2023-04-16T07:05:50.204Z,14.40
2023-04-16T07:07:51.719Z,15.80
2023-04-16T07:09:53.207Z,15.80
2023-04-16T07:11:54.986Z,16.60
2023-04-16T07:13:56.538Z,19.03
2023-04-16T07:15:58.160Z,18.33
2023-04-16T07:17:59.800Z,15.00
2023-04-16T07:20:02.769Z,17.10
2023-04-16T07:22:04.593Z,17.85
2023-04-16T07:24:06.395Z,20.00
2023-04-16T07:26:08.012Z,18.77
2023-04-16T07:28:09.619Z,19.50
2023-04-16T07:30:11.795Z,18.63
2023-04-16T07:32:15.301Z,18.40
2023-04-16T07:34:17.289Z,17.75
2023-04-16T07:36:20.765Z,20.27
2023-04-16T07:38:22.331Z,21.58
2023-04-16T07:40:24.173Z,21.27
2023-04-16T07:42:25.919Z,18.92
2023-04-16T07:44:27.530Z,20.73
2023-04-16T07:46:39.342Z,21.20
2023-04-16T07:48:48.037Z,22.27
2023-04-16T07:50:49.811Z,18.58
2023-04-16T07:52:53.584Z,18.08
2023-04-16T07:54:58.017Z,21.70
2023-04-16T07:56:59.583Z,20.42
2023-04-16T07:59:14.392Z,19.95
2023-04-16T08:01:21.490Z,22.00
2023-04-16T08:03:23.230Z,21.23
2023-04-16T08:05:25.155Z,18.40
2023-04-16T08:07:26.847Z,20.35
2023-04-16T08:09:29.777Z,21.15
2023-04-16T08:11:31.384Z,19.08
2023-04-16T08:13:33.594Z,19.10
2023-04-16T08:15:35.444Z,20.15
2023-04-16T08:17:37.214Z,17.73
2023-04-16T08:19:39.032Z,19.55
2023-04-16T08:21:40.664Z,18.67
2023-04-16T08:23:42.223Z,21.10
2023-04-16T08:25:45.266Z,18.15
2023-04-16T08:27:46.845Z,17.85
2023-04-16T08:29:48.528Z,19.02
2023-04-16T08:31:50.446Z,16.58
2023-04-16T08:33:51.995Z,20.83
2023-04-16T08:35:53.599Z,18.02
2023-04-16T08:37:55.392Z,17.95
2023-04-16T08:39:56.904Z,15.75
2023-04-16T08:42:02.600Z,16.75
2023-04-16T08:44:25.543Z,18.70
2023-04-16T08:46:29.717Z,20.42
2023-04-16T08:48:34.233Z,17.67
2023-04-16T08:50:36.112Z,16.52
2023-04-16T08:52:43.004Z,16.85
2023-04-16T08:54:57.264Z,17.38
2023-04-16T08:57:01.788Z,16.42
2023-04-16T08:59:03.965Z,18.30
2023-04-16T09:01:06.440Z,15.80
2023-04-16T09:03:09.125Z,15.77
2023-04-16T09:05:14.031Z,15.38
2023-04-16T09:07:16.931Z,15.18
2023-04-16T09:09:20.979Z,16.48
2023-04-16T09:11:22.562Z,16.63
2023-04-16T09:13:25.579Z,19.70
2023-04-16T09:15:27.584Z,17.25
2023-04-16T09:17:29.437Z,16.15
2023-04-16T09:19:31.063Z,16.77
2023-04-16T09:21:32.612Z,16.65
2023-04-16T09:23:34.311Z,15.25
2023-04-16T09:25:36.166Z,18.67
2023-04-16T09:27:38.248Z,16.42
2023-04-16T09:29:42.084Z,19.27
2023-04-16T09:32:01.636Z,17.08
2023-04-16T09:34:04.704Z,17.60
2023-04-16T09:36:06.883Z,14.13
2023-04-16T09:38:08.491Z,18.98
2023-04-16T09:40:10.589Z,20.20
2023-04-16T09:42:14.163Z,17.60
2023-04-16T09:44:18.180Z,18.15
2023-04-16T09:46:21.181Z,16.83
2023-04-16T09:48:33.635Z,15.68
2023-04-16T09:50:35.452Z,15.20
2023-04-16T09:52:37.520Z,14.85
2023-04-16T09:54:39.153Z,16.23
2023-04-16T09:56:42.001Z,14.45
2023-04-16T09:58:43.663Z,17.20
2023-04-16T10:00:45.277Z,15.35
2023-04-16T10:02:50.514Z,15.15
2023-04-16T10:04:53.949Z,17.92
2023-04-16T10:07:05.583Z,15.82
2023-04-16T10:09:08.950Z,15.13
2023-04-16T10:11:11.284Z,18.05
2023-04-16T10:13:12.905Z,18.85
2023-04-16T10:15:15.125Z,14.27
2023-04-16T10:17:19.258Z,17.50
2023-04-16T10:19:22.436Z,17.55
2023-04-16T10:21:24.289Z,17.77
2023-04-16T10:23:27.009Z,17.10
2023-04-16T10:25:29.009Z,16.92
2023-04-16T10:27:30.962Z,17.15
2023-04-16T10:29:33.534Z,17.73
2023-04-16T10:31:36.575Z,19.65
2023-04-16T10:33:40.470Z,18.20
2023-04-16T10:35:46.849Z,16.58
2023-04-16T10:37:56.363Z,17.92
2023-04-16T10:39:58.493Z,17.63
2023-04-16T10:42:10.876Z,19.55
2023-04-16T10:44:12.751Z,18.77
2023-04-16T10:46:19.430Z,19.02
2023-04-16T10:48:21.127Z,18.92
2023-04-16T10:50:22.804Z,17.67
2023-04-16T10:52:29.460Z,18.83
2023-04-16T10:54:31.687Z,18.35
2023-04-16T10:56:33.861Z,20.33
2023-04-16T10:58:36.408Z,19.77
2023-04-16T11:00:49.191Z,19.90
2023-04-16T11:02:53.197Z,18.77
2023-04-16T11:04:57.253Z,17.67
2023-04-16T11:07:04.036Z,20.27
2023-04-16T11:09:06.926Z,20.17
2023-04-16T11:11:08.641Z,19.73
2023-04-16T11:13:12.950Z,20.10
2023-04-16T11:15:15.898Z,22.43
2023-04-16T11:17:17.947Z,22.35
2023-04-16T11:19:19.569Z,18.98
2023-04-16T11:21:22.185Z,19.83
2023-04-16T11:23:23.760Z,25.08
2023-04-16T11:25:27.959Z,20.27
2023-04-16T11:27:30.618Z,19.90
2023-04-16T11:29:32.373Z,20.92
2023-04-16T11:31:33.948Z,27.23
2023-04-16T11:33:35.524Z,21.92
2023-04-16T11:35:37.325Z,20.50
2023-04-16T11:37:38.957Z,23.60
2023-04-16T11:39:51.068Z,21.45
2023-04-16T11:41:53.920Z,21.40
2023-04-16T11:43:55.511Z,19.90
2023-04-16T11:45:58.686Z,25.00
2023-04-16T11:48:00.325Z,21.70
2023-04-16T11:50:16.741Z,19.60
2023-04-16T11:52:29.181Z,23.60
2023-04-16T11:54:30.733Z,23.05
2023-04-16T11:56:33.887Z,21.13
2023-04-16T11:58:36.800Z,21.40
2023-04-16T12:00:44.962Z,20.25
2023-04-16T12:02:50.696Z,23.13
2023-04-16T12:04:52.406Z,23.20
2023-04-16T12:07:10.894Z,24.45
2023-04-16T12:09:25.487Z,22.07
2023-04-16T12:11:39.779Z,22.57
2023-04-16T12:13:42.647Z,23.30
2023-04-16T12:15:45.563Z,23.50
2023-04-16T12:17:47.144Z,26.07
2023-04-16T12:19:50.353Z,22.15
2023-04-16T12:21:51.898Z,22.05
2023-04-16T12:23:53.598Z,24.70
2023-04-16T12:25:56.217Z,26.47
2023-04-16T12:27:57.778Z,23.50
2023-04-16T12:30:08.030Z,24.47
2023-04-16T12:32:21.675Z,22.90
2023-04-16T12:34:46.404Z,25.58
2023-04-16T12:36:46.348Z,21.30
2023-04-16T12:38:47.840Z,22.35
2023-04-16T12:40:49.441Z,21.17
2023-04-16T12:42:51.040Z,22.37
2023-04-16T12:44:52.621Z,21.00
2023-04-16T12:46:55.548Z,22.67
2023-04-16T12:48:57.101Z,24.20
2023-04-16T12:50:58.701Z,22.23
2023-04-16T12:53:00.421Z,22.77
2023-04-16T12:55:02.499Z,22.27
2023-04-16T12:57:04.126Z,21.38
2023-04-16T12:59:05.771Z,27.10
2023-04-16T13:01:07.374Z,27.50
2023-04-16T13:03:10.400Z,26.63
2023-04-16T13:05:12.168Z,28.40
2023-04-16T13:07:13.763Z,25.63
2023-04-16T13:09:15.365Z,22.13
2023-04-16T13:11:16.952Z,31.00
2023-04-16T13:13:18.471Z,33.20
2023-04-16T13:15:19.956Z,29.10
2023-04-16T13:17:21.504Z,30.50
2023-04-16T13:19:24.471Z,27.13
2023-04-16T13:21:26.008Z,22.27
2023-04-16T13:23:27.578Z,25.53
2023-04-16T13:25:29.128Z,27.40
2023-04-16T13:27:30.714Z,22.45
2023-04-16T13:29:32.250Z,23.87
2023-04-16T13:31:33.936Z,24.17
2023-04-16T13:33:35.509Z,26.80
2023-04-16T13:35:39.204Z,23.20
2023-04-16T13:37:40.738Z,23.73
2023-04-16T13:39:42.227Z,25.25
2023-04-16T13:41:43.792Z,23.83
2023-04-16T13:43:45.310Z,27.93
2023-04-16T13:45:46.840Z,23.63
2023-04-16T13:47:48.510Z,21.98
2023-04-16T13:49:50.052Z,25.02
2023-04-16T13:51:52.947Z,24.70
2023-04-16T13:53:54.814Z,22.67
2023-04-16T13:55:56.370Z,24.40
2023-04-16T13:57:58.006Z,27.77
2023-04-16T13:59:59.591Z,23.52
2023-04-16T14:02:01.396Z,23.13
2023-04-16T14:04:02.986Z,24.35
2023-04-16T14:06:05.267Z,23.80
2023-04-16T14:08:08.156Z,22.57
2023-04-16T14:10:10.428Z,25.20
2023-04-16T14:12:12.096Z,25.40
2023-04-16T14:14:13.932Z,25.20
2023-04-16T14:16:15.696Z,25.90
2023-04-16T14:18:17.292Z,27.23
2023-04-16T14:20:19.004Z,31.73
2023-04-16T14:22:20.604Z,26.05
2023-04-16T14:24:23.490Z,27.03
2023-04-16T14:26:25.032Z,24.88
2023-04-16T14:28:26.574Z,24.17
2023-04-16T14:30:28.233Z,26.00
2023-04-16T14:32:29.766Z,24.97
2023-04-16T14:34:31.267Z,27.83
2023-04-16T14:36:32.857Z,25.05
2023-04-16T14:38:34.461Z,25.77
2023-04-16T14:40:37.320Z,28.73
2023-04-16T14:42:39.504Z,26.53
2023-04-16T14:44:41.008Z,28.58
2023-04-16T14:46:42.522Z,28.80
2023-04-16T14:48:44.317Z,27.23
2023-04-16T14:50:45.899Z,25.27
2023-04-16T14:52:47.419Z,28.40
2023-04-16T14:54:48.987Z,29.93
2023-04-16T14:56:51.826Z,27.60
2023-04-16T14:58:53.393Z,31.43
2023-04-16T15:00:54.997Z,34.53
2023-04-16T15:02:56.809Z,27.53
2023-04-16T15:04:59.673Z,29.77
2023-04-16T15:07:01.298Z,34.28
2023-04-16T15:09:03.112Z,29.97
2023-04-16T15:11:04.651Z,31.67
2023-04-16T15:13:07.553Z,29.53
2023-04-16T15:15:10.128Z,27.43
2023-04-16T15:17:11.917Z,26.57
2023-04-16T15:19:13.519Z,25.27
2023-04-16T15:21:16.280Z,29.67
2023-04-16T15:23:17.873Z,33.97
2023-04-16T15:25:19.687Z,26.83
2023-04-16T15:27:21.269Z,29.20
2023-04-16T15:29:24.360Z,26.92
2023-04-16T15:31:25.978Z,26.37
2023-04-16T15:33:27.578Z,30.08
2023-04-16T15:35:29.085Z,37.83
2023-04-16T15:37:30.809Z,32.90
2023-04-16T15:39:32.428Z,44.23
2023-04-16T15:41:33.935Z,29.90
2023-04-16T15:43:38.072Z,32.17
2023-04-16T15:45:40.930Z,31.70
2023-04-16T15:47:42.594Z,33.40
2023-04-16T15:49:44.180Z,27.70
2023-04-16T15:51:45.777Z,33.43
2023-04-16T15:53:47.431Z,33.47
2023-04-16T15:55:49.105Z,29.95
2023-04-16T15:57:50.685Z,30.37
2023-04-16T16:00:05.923Z,28.80
2023-04-16T16:02:09.833Z,28.00
2023-04-16T16:04:11.621Z,32.43
2023-04-16T16:06:13.484Z,28.57
2023-04-16T16:08:15.894Z,26.70
2023-04-16T16:10:17.430Z,27.30
2023-04-16T16:12:18.974Z,28.60
2023-04-16T16:14:20.880Z,29.25
2023-04-16T16:16:22.457Z,27.10
2023-04-16T16:18:25.361Z,30.37
2023-04-16T16:20:31.608Z,37.83
2023-04-16T16:22:33.193Z,39.75
2023-04-16T16:24:34.756Z,34.10
2023-04-16T16:26:36.292Z,35.35
2023-04-16T16:28:37.989Z,37.07
2023-04-16T16:30:39.591Z,30.50
2023-04-16T16:32:41.248Z,51.28
2023-04-16T16:34:44.421Z,46.70
2023-04-16T16:36:46.112Z,36.67
2023-04-16T16:38:47.731Z,31.58
2023-04-16T16:40:49.314Z,31.13
2023-04-16T16:42:50.902Z,39.88
2023-04-16T16:44:53.436Z,45.67
2023-04-16T16:46:56.369Z,33.00
2023-04-16T16:48:57.878Z,35.88
2023-04-16T16:51:00.900Z,31.25
2023-04-16T16:53:02.979Z,52.10
2023-04-16T16:55:05.407Z,30.83
2023-04-16T16:57:07.194Z,27.20
2023-04-16T16:59:08.890Z,26.65
2023-04-16T17:01:10.637Z,26.70
2023-04-16T17:03:12.377Z,25.33
2023-04-16T17:05:14.260Z,26.45
2023-04-16T17:07:17.112Z,27.10
2023-04-16T17:09:18.654Z,30.23
2023-04-16T17:11:20.159Z,27.27
2023-04-16T17:13:21.665Z,33.10
2023-04-16T17:15:23.334Z,35.00
2023-04-16T17:17:26.278Z,31.20
2023-04-16T17:19:28.150Z,28.47
2023-04-16T17:21:31.089Z,25.40
2023-04-16T17:23:33.998Z,25.37
2023-04-16T17:25:35.579Z,26.60
2023-04-16T17:27:37.143Z,25.60
2023-04-16T17:29:38.720Z,26.13
2023-04-16T17:31:40.303Z,24.08
2023-04-16T17:33:42.088Z,27.45
2023-04-16T17:35:43.666Z,27.15
2023-04-16T17:37:45.209Z,26.70
2023-04-16T17:39:48.183Z,26.50
2023-04-16T17:41:49.681Z,27.87
2023-04-16T17:43:51.258Z,32.88
2023-04-16T17:45:52.888Z,38.33
2023-04-16T17:47:54.622Z,38.40
2023-04-16T17:49:56.393Z,39.77
2023-04-16T17:51:58.023Z,31.20
2023-04-16T17:53:59.574Z,30.70
2023-04-16T17:56:02.513Z,30.93
2023-04-16T17:58:04.102Z,30.17
2023-04-16T18:00:06.873Z,30.98
2023-04-16T18:02:08.668Z,31.38
2023-04-16T18:04:11.012Z,29.13
2023-04-16T18:06:12.910Z,32.30
2023-04-16T18:08:14.426Z,31.90
2023-04-16T18:10:16.098Z,33.67
2023-04-16T18:12:18.989Z,28.55
2023-04-16T18:14:20.530Z,28.95
2023-04-16T18:16:22.177Z,28.30
2023-04-16T18:18:23.708Z,29.50
2023-04-16T18:20:25.196Z,31.23
2023-04-16T18:22:27.572Z,28.27
2023-04-16T18:24:29.229Z,31.25
2023-04-16T18:26:31.200Z,28.95
2023-04-16T18:28:36.219Z,30.02
2023-04-16T18:30:40.515Z,33.13
2023-04-16T18:32:56.228Z,34.03
2023-04-16T18:35:04.307Z,51.03
2023-04-16T18:37:05.788Z,31.52
2023-04-16T18:39:07.393Z,27.73
2023-04-16T18:41:16.166Z,27.40
2023-04-16T18:43:17.672Z,25.90
2023-04-16T18:45:21.811Z,25.57
2023-04-16T18:47:23.845Z,27.45
2023-04-16T18:49:25.738Z,24.77
2023-04-16T18:51:27.252Z,27.63
2023-04-16T18:53:28.855Z,26.40
2023-04-16T18:55:30.392Z,25.55
2023-04-16T18:57:31.931Z,25.10
2023-04-16T18:59:33.510Z,28.67
2023-04-16T19:01:36.429Z,31.55
2023-04-16T19:03:38.084Z,36.28
2023-04-16T19:05:40.025Z,43.77
2023-04-16T19:07:41.634Z,29.00
2023-04-16T19:09:43.169Z,28.45
2023-04-16T19:11:44.720Z,26.70
2023-04-16T19:13:46.274Z,31.95
2023-04-16T19:15:47.881Z,28.13
2023-04-16T19:17:50.888Z,31.93
2023-04-16T19:19:52.527Z,38.10
2023-04-16T19:21:54.232Z,60.88
2023-04-16T19:23:55.755Z,36.92
2023-04-16T19:25:57.310Z,29.77
2023-04-16T19:27:58.932Z,30.23
2023-04-16T19:30:00.523Z,29.20
2023-04-16T19:32:02.222Z,28.20
2023-04-16T19:34:05.198Z,26.77
2023-04-16T19:36:07.005Z,26.38
2023-04-16T19:38:10.283Z,24.80
2023-04-16T19:40:12.647Z,27.03
2023-04-16T19:42:14.210Z,26.60
2023-04-16T19:44:15.749Z,25.33
2023-04-16T19:46:17.317Z,26.00
2023-04-16T19:48:19.199Z,25.93
2023-04-16T19:50:22.036Z,27.10
2023-04-16T19:52:23.544Z,27.27
2023-04-16T19:54:25.165Z,25.70
2023-04-16T19:56:26.732Z,27.15
2023-04-16T19:58:28.287Z,28.15
2023-04-16T20:00:29.986Z,26.13
2023-04-16T20:02:31.704Z,24.30
2023-04-16T20:04:34.276Z,25.27
2023-04-16T20:06:37.315Z,23.20
2023-04-16T20:08:38.874Z,24.50
2023-04-16T20:10:40.416Z,23.40
2023-04-16T20:12:42.003Z,24.25
2023-04-16T20:14:43.518Z,21.92
2023-04-16T20:16:45.099Z,24.25
2023-04-16T20:18:46.649Z,24.33
2023-04-16T20:20:48.162Z,22.67
2023-04-16T20:22:51.011Z,23.13
2023-04-16T20:24:52.714Z,22.03
2023-04-16T20:26:54.324Z,21.75
2023-04-16T20:28:55.895Z,22.38
2023-04-16T20:30:57.525Z,21.92
2023-04-16T20:32:59.113Z,22.20
2023-04-16T20:35:00.723Z,21.33
2023-04-16T20:37:02.384Z,22.50
2023-04-16T20:39:05.341Z,20.60
2023-04-16T20:41:07.043Z,21.38
2023-04-16T20:43:08.607Z,20.23
2023-04-16T20:45:10.225Z,21.10
2023-04-16T20:47:11.908Z,18.20
2023-04-16T20:49:16.234Z,20.10
2023-04-16T20:51:17.789Z,18.35
2023-04-16T20:53:19.314Z,20.27
2023-04-16T20:55:22.363Z,18.13
2023-04-16T20:57:23.918Z,20.00
2023-04-16T20:59:25.509Z,18.90
2023-04-16T21:01:27.090Z,19.73
2023-04-16T21:03:28.899Z,18.30
2023-04-16T21:05:30.622Z,21.92
2023-04-16T21:07:32.209Z,18.30
2023-04-16T21:09:33.786Z,19.75
2023-04-16T21:11:36.870Z,18.77
2023-04-16T21:13:38.490Z,20.05
2023-04-16T21:15:41.305Z,18.25
2023-04-16T21:17:42.877Z,18.00
2023-04-16T21:19:44.425Z,18.05
2023-04-16T21:21:48.737Z,19.05
2023-04-16T21:23:50.672Z,18.52
2023-04-16T21:25:52.219Z,18.38
2023-04-16T21:27:55.102Z,19.60
2023-04-16T21:29:56.665Z,19.17
2023-04-16T21:31:58.317Z,18.85
2023-04-16T21:34:00.013Z,19.17
2023-04-16T21:36:01.566Z,18.20
2023-04-16T21:38:03.113Z,21.15
2023-04-16T21:40:06.080Z,20.58
2023-04-16T21:42:07.689Z,19.70
2023-04-16T21:44:10.602Z,21.23
2023-04-16T21:46:12.193Z,19.20
2023-04-16T21:48:14.025Z,19.42
2023-04-16T21:50:15.674Z,18.90
2023-04-16T21:52:17.233Z,20.50
2023-04-16T21:54:18.905Z,22.13
2023-04-16T21:56:20.514Z,19.47
2023-04-16T21:58:22.287Z,20.30
2023-04-16T22:00:25.131Z,20.30
2023-04-16T22:02:26.839Z,20.88
2023-04-16T22:04:28.510Z,19.33
2023-04-16T22:06:30.080Z,20.17
2023-04-16T22:08:32.106Z,19.23
2023-04-16T22:10:33.649Z,18.85
2023-04-16T22:12:35.393Z,19.15
2023-04-16T22:14:38.376Z,19.38
2023-04-16T22:16:44.351Z,19.42
2023-04-16T22:18:45.988Z,19.35
2023-04-16T22:20:47.587Z,19.30
2023-04-16T22:22:49.514Z,16.88
2023-04-16T22:24:51.093Z,19.02
2023-04-16T22:26:52.686Z,16.27
2023-04-16T22:28:54.247Z,17.48
2023-04-16T22:30:56.187Z,15.48
2023-04-16T22:33:02.248Z,16.30
2023-04-16T22:35:04.245Z,17.85
2023-04-16T22:37:05.966Z,15.60
2023-04-16T22:39:07.622Z,15.77
2023-04-16T22:41:09.923Z,17.07
2023-04-16T22:43:11.522Z,15.88
2023-04-16T22:45:13.241Z,17.30
2023-04-16T22:47:14.916Z,17.80
2023-04-16T22:49:17.853Z,17.02
2023-04-16T22:51:19.426Z,16.15
2023-04-16T22:53:20.989Z,16.55
2023-04-16T22:55:22.712Z,15.88
2023-04-16T22:57:24.282Z,19.48
2023-04-16T22:59:25.874Z,16.05
2023-04-16T23:01:27.451Z,17.25
2023-04-16T23:03:29.081Z,16.30
2023-04-16T23:05:32.035Z,16.35
2023-04-16T23:07:33.534Z,16.95
2023-04-16T23:09:35.090Z,16.00
2023-04-16T23:11:36.673Z,16.42
2023-04-16T23:13:38.361Z,15.50
2023-04-16T23:15:40.207Z,15.52
2023-04-16T23:17:41.866Z,14.88
2023-04-16T23:19:43.407Z,15.23
2023-04-16T23:21:46.296Z,15.87
2023-04-16T23:23:47.801Z,15.55
2023-04-16T23:25:52.172Z,15.75
2023-04-16T23:27:53.765Z,15.23
2023-04-16T23:29:55.350Z,16.92
2023-04-16T23:31:56.897Z,14.88
2023-04-16T23:33:58.485Z,19.00
2023-04-16T23:36:00.050Z,14.50
2023-04-16T23:38:02.991Z,14.77
2023-04-16T23:40:05.785Z,16.45
2023-04-16T23:42:07.347Z,17.35
2023-04-16T23:44:08.910Z,16.10
2023-04-16T23:46:10.474Z,16.65
2023-04-16T23:48:12.052Z,15.43
2023-04-16T23:50:13.605Z,16.83
2023-04-16T23:52:15.188Z,17.17
2023-04-16T23:54:18.072Z,15.80
2023-04-16T23:56:19.648Z,17.83
2023-04-16T23:58:21.201Z,16.05
